Time;durP1;ratioP1;P1;durP2;ratioP2;P2;SDS_P1;SDS_P2;PMS_P1;PMS_P2;Temp;Humidity;BMP_temperature;BMP_pressure;BME280_temperature;BME280_humidity;BME280_pressure;Samples;Min_cycle;Max_cycle;Signal;HPM_P1;HPM_P2
2022/05/09 00:01:14;;;;;;;8.73;8.23;;;;;;;6.94;75.23;102943.06;5014003;28;20461;-48
2022/05/09 00:03:44;;;;;;;9.17;8.47;;;;;;;6.97;75.29;102934.88;5003261;28;20789;-48
2022/05/09 00:06:14;;;;;;;9.27;8.67;;;;;;;6.98;75.40;102945.38;4993336;28;21039;-48
2022/05/09 00:08:42;;;;;;;8.60;8.10;;;;;;;6.98;75.75;102947.19;4993669;28;20430;-44
2022/05/09 00:11:11;;;;;;;9.43;8.40;;;;;;;6.99;76.13;102947.06;4994017;28;20533;-48
2022/05/09 00:13:39;;;;;;;10.03;9.27;;;;;;;7.00;76.39;102950.56;4993893;28;20448;-49
2022/05/09 00:16:07;;;;;;;9.33;8.60;;;;;;;6.91;75.73;102952.13;4993260;28;20461;-49
2022/05/09 00:18:35;;;;;;;8.43;7.83;;;;;;;6.76;75.49;102950.66;4993324;28;20477;-46
2022/05/09 00:21:03;;;;;;;9.00;8.43;;;;;;;6.64;75.23;102949.78;4993988;28;20434;-46
2022/05/09 00:23:32;;;;;;;12.23;8.03;;;;;;;6.52;75.96;102956.03;4993887;28;20438;-44
2022/05/09 00:26:00;;;;;;;10.17;8.80;;;;;;;6.41;76.03;102961.28;4993138;28;20455;-50
2022/05/09 00:28:29;;;;;;;9.00;8.40;;;;;;;6.31;76.36;102964.75;4993212;28;20513;-46
2022/05/09 00:30:56;;;;;;;9.10;7.97;;;;;;;6.22;76.89;102963.63;4993531;28;20434;-45
2022/05/09 00:33:25;;;;;;;11.03;8.60;;;;;;;6.10;76.88;102970.69;4993720;28;20442;-44
2022/05/09 00:35:53;;;;;;;8.60;7.97;;;;;;;6.02;77.60;102975.72;4992832;28;20460;-46
2022/05/09 00:38:21;;;;;;;9.07;8.13;;;;;;;5.95;77.57;102966.50;4993038;28;20433;-49
2022/05/09 00:43:37;;;;;;;8.30;7.73;;;;;;;5.85;78.91;102970.81;5000006;28;20920;-50
2022/05/09 00:46:05;;;;;;;8.40;7.60;;;;;;;5.85;78.48;102973.47;4994802;28;20458;-49
2022/05/09 00:48:33;;;;;;;8.77;7.97;;;;;;;5.85;78.96;102976.09;5002399;28;20431;-45
2022/05/09 00:51:03;;;;;;;10.30;8.77;;;;;;;5.88;79.07;102967.94;4993191;28;20530;-45
2022/05/09 00:53:33;;;;;;;10.97;9.33;;;;;;;5.93;79.51;102968.44;4993374;28;20426;-49
2022/05/09 00:56:06;;;;;;;9.20;8.40;;;;;;;6.00;79.95;102967.00;4992352;28;20456;-45
2022/05/09 00:58:38;;;;;;;8.57;7.97;;;;;;;6.05;79.41;102961.38;5000184;28;20537;-47
2022/05/09 01:01:08;;;;;;;9.93;9.23;;;;;;;6.10;80.01;102954.78;5012877;28;20996;-43
2022/05/09 01:03:40;;;;;;;10.10;9.23;;;;;;;6.17;80.16;102956.97;5003227;28;20465;-44
2022/05/09 01:06:08;;;;;;;11.30;9.13;;;;;;;6.23;80.17;102956.53;4992205;28;20462;-48
2022/05/09 01:08:36;;;;;;;16.00;10.07;;;;;;;6.25;80.29;102959.91;5000410;28;20443;-43
2022/05/09 01:11:09;;;;;;;10.73;9.90;;;;;;;6.27;80.37;102953.56;5012681;28;20433;-44
2022/05/09 01:13:42;;;;;;;9.27;8.67;;;;;;;6.26;80.55;102945.69;5012370;28;20433;-48
2022/05/09 01:16:09;;;;;;;9.20;8.47;;;;;;;6.27;81.14;102953.56;5003506;28;20545;-47
2022/05/09 01:18:39;;;;;;;8.53;8.13;;;;;;;6.26;81.27;102951.00;4992186;28;20438;-45
2022/05/09 01:21:29;;;;;;;11.20;9.93;;;;;;;6.29;80.82;102953.41;4992531;28;20446;-44
2022/05/09 01:23:57;;;;;;;9.80;9.00;;;;;;;6.27;80.66;102950.91;4992358;28;20521;-44
2022/05/09 01:26:25;;;;;;;10.10;9.33;;;;;;;6.23;80.78;102952.06;4991830;28;20470;-44
2022/05/09 01:28:53;;;;;;;10.00;8.90;;;;;;;6.16;80.81;102949.97;4992346;28;20445;-43
2022/05/09 01:31:21;;;;;;;9.80;8.90;;;;;;;6.08;80.64;102953.22;4992456;28;20456;-48
2022/05/09 01:33:51;;;;;;;9.77;8.77;;;;;;;6.00;81.26;102951.13;4992691;28;20488;-46
2022/05/09 01:36:22;;;;;;;10.40;8.77;;;;;;;5.91;80.85;102953.63;5011107;28;20467;-43
2022/05/09 01:38:56;;;;;;;9.20;8.53;;;;;;;5.83;81.36;102953.28;5011624;28;20949;-44
2022/05/09 01:41:24;;;;;;;11.50;10.50;;;;;;;5.74;82.02;102946.84;5012089;28;20444;-45
2022/05/09 01:43:55;;;;;;;8.90;8.00;;;;;;;5.68;82.29;102949.94;4999938;28;20437;-44
2022/05/09 01:46:24;;;;;;;11.50;9.73;;;;;;;5.62;82.86;102960.13;4995216;28;20479;-47
2022/05/09 01:51:39;;;;;;;10.80;8.47;;;;;;;5.49;83.86;102954.91;4992347;28;20430;-46
2022/05/09 01:54:09;;;;;;;9.73;8.83;;;;;;;5.47;84.10;102955.00;4991908;28;20445;-46
2022/05/09 01:56:39;;;;;;;11.83;10.17;;;;;;;5.47;83.57;102948.84;4991122;28;20482;-43
2022/05/09 01:59:08;;;;;;;9.50;8.30;;;;;;;5.47;83.54;102951.50;5003842;28;20772;-47
2022/05/09 02:01:38;;;;;;;10.07;9.03;;;;;;;5.50;83.86;102951.28;5011250;28;20437;-45
2022/05/09 02:04:07;;;;;;;10.03;9.23;;;;;;;5.52;84.42;102949.38;4997515;28;20522;-46
2022/05/09 02:06:35;;;;;;;11.03;9.60;;;;;;;5.56;84.55;102945.53;4991136;28;20836;-45
2022/05/09 02:09:02;;;;;;;10.50;8.87;;;;;;;5.59;84.41;102948.81;4991564;28;20426;-44
2022/05/09 02:11:32;;;;;;;9.97;9.07;;;;;;;5.62;84.63;102944.25;4991941;28;20457;-45
2022/05/09 02:14:00;;;;;;;10.50;9.70;;;;;;;5.60;84.34;102941.72;5004252;28;20429;-45
2022/05/09 02:16:28;;;;;;;9.97;8.93;;;;;;;5.60;84.93;102941.72;4999996;28;20466;-44
2022/05/09 02:18:56;;;;;;;9.67;8.30;;;;;;;5.54;84.46;102950.13;4991527;28;20437;-44
2022/05/09 02:21:24;;;;;;;9.63;8.87;;;;;;;5.52;84.57;102944.94;4991688;28;20477;-47
2022/05/09 02:23:51;;;;;;;9.63;8.77;;;;;;;5.47;84.54;102941.75;4991529;28;20434;-45
2022/05/09 02:26:19;;;;;;;8.70;7.97;;;;;;;5.40;84.75;102940.53;5010377;28;20465;-46
2022/05/09 02:28:48;;;;;;;10.30;8.53;;;;;;;5.35;84.81;102941.78;5011127;28;20443;-45
2022/05/09 02:31:19;;;;;;;10.00;9.20;;;;;;;5.28;84.76;102944.03;5011211;28;20448;-47
2022/05/09 02:33:46;;;;;;;9.80;9.00;;;;;;;5.22;85.08;102946.28;5011223;28;20433;-47
2022/05/09 02:36:14;;;;;;;9.10;8.20;;;;;;;5.18;85.46;102936.84;5010022;28;20469;-44
2022/05/09 02:38:42;;;;;;;9.00;8.30;;;;;;;5.13;85.78;102939.00;5010955;28;20456;-44
2022/05/09 02:41:10;;;;;;;9.07;8.33;;;;;;;5.09;85.32;102934.84;5011002;28;20479;-47
2022/05/09 02:43:37;;;;;;;9.13;8.23;;;;;;;5.08;85.87;102939.28;5001515;28;20440;-45
2022/05/09 02:46:06;;;;;;;9.00;7.87;;;;;;;5.08;86.16;102933.19;5005859;28;20461;-47
2022/05/09 02:48:36;;;;;;;12.17;8.97;;;;;;;5.08;85.83;102930.53;4999067;28;20430;-42
2022/05/09 02:51:04;;;;;;;9.43;8.63;;;;;;;5.08;86.12;102941.13;4991521;28;20497;-45
2022/05/09 02:53:32;;;;;;;11.80;10.53;;;;;;;5.11;86.30;102933.78;4991702;28;20460;-45
2022/05/09 02:56:00;;;;;;;10.27;9.50;;;;;;;5.18;86.71;102939.50;4990629;28;20457;-43
2022/05/09 02:58:28;;;;;;;10.27;9.03;;;;;;;5.18;86.44;102943.00;4997665;28;20425;-45
2022/05/09 03:00:56;;;;;;;10.63;9.93;;;;;;;5.18;86.18;102948.28;5010986;28;20488;-46
2022/05/09 03:06:11;;;;;;;11.33;10.40;;;;;;;5.17;86.59;102948.41;4990618;28;20481;-45
2022/05/09 03:08:39;;;;;;;11.53;10.53;;;;;;;5.17;86.50;102945.75;4991041;28;20426;-43
2022/05/09 03:11:07;;;;;;;10.87;10.03;;;;;;;5.18;87.20;102952.72;4991251;28;20434;-45
2022/05/09 03:13:36;;;;;;;11.33;10.33;;;;;;;5.19;86.67;102952.63;4991219;28;20438;-46
2022/05/09 03:16:04;;;;;;;13.27;11.50;;;;;;;5.23;87.33;102954.09;4994150;28;21002;-49
2022/05/09 03:18:33;;;;;;;11.83;10.70;;;;;;;5.28;87.36;102951.97;4994339;28;20516;-44
2022/05/09 03:21:01;;;;;;;12.63;9.60;;;;;;;5.26;87.47;102945.94;4994646;28;20500;-45
2022/05/09 03:23:29;;;;;;;12.77;11.37;;;;;;;5.28;87.63;102951.13;4995158;28;20804;-43
2022/05/09 03:25:57;;;;;;;11.57;10.50;;;;;;;5.26;87.96;102951.22;5000473;28;20445;-43
2022/05/09 03:28:26;;;;;;;12.00;9.70;;;;;;;5.27;87.88;102950.28;5013743;28;20464;-45
2022/05/09 03:30:57;;;;;;;10.33;9.63;;;;;;;5.25;87.59;102952.19;5014066;28;20432;-45
2022/05/09 03:33:27;;;;;;;9.83;8.87;;;;;;;5.21;87.81;102940.13;5014495;28;20433;-44
2022/05/09 03:35:59;;;;;;;10.70;9.80;;;;;;;5.15;87.74;102951.16;5013415;28;20544;-45
2022/05/09 03:38:27;;;;;;;10.87;9.77;;;;;;;5.11;87.57;102946.19;5013827;28;20433;-46
2022/05/09 03:40:55;;;;;;;11.47;10.57;;;;;;;5.10;87.69;102953.28;5013866;28;20982;-44
2022/05/09 03:43:23;;;;;;;11.67;10.60;;;;;;;5.08;87.73;102960.44;5006620;28;20433;-47
2022/05/09 03:45:53;;;;;;;9.30;8.53;;;;;;;5.13;87.65;102944.28;4993844;28;20456;-44
2022/05/09 03:48:20;;;;;;;9.37;8.50;;;;;;;5.13;87.35;102939.84;5004983;28;20429;-43
2022/05/09 03:50:48;;;;;;;9.40;8.70;;;;;;;5.17;87.49;102943.94;5013903;28;20942;-44
2022/05/09 03:53:17;;;;;;;9.77;8.20;;;;;;;5.23;87.64;102942.66;5013611;28;20440;-45
2022/05/09 03:55:45;;;;;;;11.13;10.10;;;;;;;5.29;87.64;102945.72;5013256;28;20457;-49
2022/05/09 03:58:14;;;;;;;10.07;9.07;;;;;;;5.37;87.50;102939.91;5013438;28;20429;-43
2022/05/09 04:00:42;;;;;;;10.67;9.50;;;;;;;5.43;87.64;102940.31;5013896;28;20483;-51
2022/05/09 04:03:09;;;;;;;11.50;10.30;;;;;;;5.50;87.46;102936.25;5007739;28;20430;-46
2022/05/09 04:05:37;;;;;;;10.67;9.60;;;;;;;5.58;87.15;102931.25;4997595;28;20457;-48
2022/05/09 04:08:08;;;;;;;12.43;10.17;;;;;;;5.68;87.60;102936.72;5005374;28;20476;-48
2022/05/09 04:10:40;;;;;;;11.80;10.27;;;;;;;5.80;87.57;102945.56;5013712;28;20452;-44
2022/05/09 04:13:08;;;;;;;10.20;9.50;;;;;;;5.92;87.07;102939.41;5013482;28;20468;-45
2022/05/09 04:18:23;;;;;;;10.90;9.97;;;;;;;6.17;87.03;102938.44;5012662;28;20524;-44
2022/05/09 04:20:51;;;;;;;17.40;10.33;;;;;;;6.32;87.24;102942.59;5013537;28;20497;-45
2022/05/09 04:23:19;;;;;;;11.93;10.57;;;;;;;6.45;86.07;102946.84;5013518;28;20523;-45
2022/05/09 04:25:49;;;;;;;10.67;9.87;;;;;;;6.76;87.45;102939.19;5012346;28;20445;-44
2022/05/09 04:28:19;;;;;;;15.70;10.77;;;;;;;7.20;87.63;102944.53;4996747;28;20863;-45
2022/05/09 04:30:47;;;;;;;10.40;9.60;;;;;;;7.84;87.56;102948.16;4993437;28;20430;-43
2022/05/09 04:33:15;;;;;;;10.10;9.40;;;;;;;8.54;87.20;102937.03;4993860;28;20441;-45
2022/05/09 04:35:43;;;;;;;10.23;9.33;;;;;;;9.22;85.04;102939.06;4993351;28;20465;-45
2022/05/09 04:38:16;;;;;;;11.33;10.17;;;;;;;9.92;82.65;102925.59;5007200;28;20453;-46
2022/05/09 04:40:44;;;;;;;11.50;10.50;;;;;;;10.74;81.46;102931.31;5012996;28;20835;-44
2022/05/09 04:43:13;;;;;;;10.40;9.40;;;;;;;11.44;77.58;102931.59;5006586;28;20434;-50
2022/05/09 04:45:41;;;;;;;10.30;9.37;;;;;;;12.13;75.70;102931.00;4992588;28;20972;-46
2022/05/09 04:48:09;;;;;;;9.67;8.77;;;;;;;12.94;75.08;102929.75;4998798;28;20462;-49
2022/05/09 04:50:37;;;;;;;9.97;8.97;;;;;;;13.62;71.81;102929.75;5012660;28;20432;-49
2022/05/09 04:53:05;;;;;;;11.17;9.27;;;;;;;14.36;70.87;102935.91;5012787;28;20441;-48
2022/05/09 04:55:32;;;;;;;10.43;9.20;;;;;;;14.99;67.86;102932.47;5012240;28;20439;-44
2022/05/09 04:58:04;;;;;;;9.37;8.67;;;;;;;15.84;66.62;102936.94;5011637;28;20461;-44
2022/05/09 05:00:33;;;;;;;9.23;8.50;;;;;;;16.64;63.76;102933.78;5012981;28;20429;-45
2022/05/09 05:03:00;;;;;;;11.47;10.40;;;;;;;17.48;61.93;102930.63;5007494;28;20835;-45
2022/05/09 05:05:28;;;;;;;9.50;8.80;;;;;;;18.18;59.45;102930.81;4992656;28;20446;-44
2022/05/09 05:07:56;;;;;;;12.43;9.00;;;;;;;18.65;56.83;102933.72;5004787;28;20503;-47
2022/05/09 05:10:27;;;;;;;10.50;9.50;;;;;;;19.09;54.65;102940.63;5012379;28;20503;-44
2022/05/09 05:12:56;;;;;;;10.80;9.80;;;;;;;19.34;53.59;102939.94;5012551;28;20523;-44
2022/05/09 05:15:24;;;;;;;10.63;9.57;;;;;;;19.65;52.51;102936.75;4999884;28;20935;-47
2022/05/09 05:17:53;;;;;;;9.70;8.80;;;;;;;19.70;52.05;102938.84;4993824;28;20461;-45
2022/05/09 05:20:21;;;;;;;10.30;9.30;;;;;;;19.42;51.30;102935.41;5012142;28;20491;-46
2022/05/09 05:22:52;;;;;;;24.53;10.37;;;;;;;19.52;52.27;102944.84;5012031;28;20499;-46
2022/05/09 05:25:22;;;;;;;9.37;8.57;;;;;;;19.67;50.68;102936.56;5010388;28;20827;-48
2022/05/09 05:27:50;;;;;;;8.70;8.10;;;;;;;20.30;51.89;102941.50;4991664;28;20464;-45
2022/05/09 05:30:18;;;;;;;9.97;9.17;;;;;;;20.73;50.83;102941.88;4992516;28;20443;-49
2022/05/09 05:32:47;;;;;;;8.87;8.20;;;;;;;21.13;49.79;102933.69;4992467;28;20449;-46
2022/05/09 05:35:19;;;;;;;9.50;8.70;;;;;;;21.56;49.28;102932.06;4991925;28;20952;-46
2022/05/09 05:37:47;;;;;;;9.30;8.63;;;;;;;22.20;48.20;102934.59;4990521;28;20469;-47
2022/05/09 05:40:15;;;;;;;8.60;7.93;;;;;;;22.81;46.21;102925.72;4992320;28;20440;-44
2022/05/09 05:42:44;;;;;;;7.40;6.90;;;;;;;23.39;45.41;102918.78;4998995;28;20475;-45
2022/05/09 05:45:13;;;;;;;7.43;6.93;;;;;;;23.70;44.46;102931.34;4992054;28;20434;-44
2022/05/09 05:47:41;;;;;;;7.23;6.63;;;;;;;23.77;41.42;102934.84;5001549;28;20468;-49
2022/05/09 05:50:11;;;;;;;9.23;7.23;;;;;;;24.04;42.22;102927.09;4993337;28;20430;-46
2022/05/09 05:52:41;;;;;;;7.67;6.87;;;;;;;24.27;41.18;102932.59;4992595;28;20444;-48
2022/05/09 05:55:10;;;;;;;5.70;5.30;;;;;;;24.56;40.92;102920.78;4992259;28;20521;-46
2022/05/09 05:57:40;;;;;;;5.70;5.20;;;;;;;24.71;39.97;102921.13;4990921;28;21045;-44
2022/05/09 06:00:11;;;;;;;4.97;4.47;;;;;;;25.13;39.45;102921.81;4992186;28;20444;-46
2022/05/09 06:02:39;;;;;;;5.00;4.70;;;;;;;25.48;37.91;102924.44;4991882;28;20978;-51
2022/05/09 06:05:07;;;;;;;5.20;4.17;;;;;;;25.41;33.07;102915.56;4991753;28;20955;-48
2022/05/09 06:07:35;;;;;;;4.27;3.97;;;;;;;25.42;34.96;102919.13;4991103;28;20473;-49
2022/05/09 06:10:05;;;;;;;5.07;4.50;;;;;;;25.39;35.20;102914.94;5000883;28;20938;-46
2022/05/09 06:12:33;;;;;;;4.80;4.00;;;;;;;25.42;34.18;102914.47;5010252;28;20495;-48
2022/05/09 06:17:46;;;;;;;4.83;4.03;;;;;;;25.91;33.24;102903.94;4990800;28;20473;-50
2022/05/09 06:20:14;;;;;;;3.93;3.67;;;;;;;26.01;31.13;102912.31;4991776;28;20440;-52
2022/05/09 06:22:42;;;;;;;4.23;3.80;;;;;;;26.13;31.07;102910.34;4991751;28;20469;-46
2022/05/09 06:25:17;;;;;;;3.93;3.43;;;;;;;26.16;28.99;102910.72;4991363;28;20781;-49
2022/05/09 06:27:44;;;;;;;6.73;3.87;;;;;;;26.35;31.03;102908.53;4990811;28;20464;-48
2022/05/09 06:30:14;;;;;;;5.43;3.73;;;;;;;26.56;31.16;102894.09;4991847;28;20434;-48
2022/05/09 06:32:41;;;;;;;5.47;4.17;;;;;;;26.72;29.02;102900.59;4991589;28;20571;-50
2022/05/09 06:35:12;;;;;;;6.57;4.40;;;;;;;26.69;29.87;102904.69;4991378;28;20468;-48
2022/05/09 06:37:39;;;;;;;6.63;4.70;;;;;;;26.82;29.62;102898.84;4990499;28;20473;-45
2022/05/09 06:40:10;;;;;;;6.30;4.47;;;;;;;26.62;29.81;102904.03;4998976;28;20455;-48
2022/05/09 06:42:39;;;;;;;5.00;4.03;;;;;;;26.48;29.07;102886.31;5011264;28;20466;-46
2022/05/09 06:45:09;;;;;;;7.13;4.07;;;;;;;26.84;28.77;102891.25;5010931;28;20942;-49
2022/05/09 06:47:44;;;;;;;5.70;3.87;;;;;;;27.02;27.56;102905.69;5002107;28;20468;-44
2022/05/09 06:50:12;;;;;;;7.00;4.23;;;;;;;26.74;27.80;102898.44;4995727;28;20440;-45
2022/05/09 06:52:41;;;;;;;6.30;3.90;;;;;;;26.32;26.63;102898.09;4995753;28;21143;-48
2022/05/09 06:55:29;;;;;;;6.23;4.23;;;;;;;26.45;26.55;102889.53;4995248;28;20438;-48
2022/05/09 06:57:58;;;;;;;6.70;3.70;;;;;;;26.60;28.06;102894.41;4997110;28;20476;-46
2022/05/09 07:00:27;;;;;;;4.40;4.00;;;;;;;26.77;27.14;102886.97;5014800;28;20437;-47
2022/05/09 07:02:54;;;;;;;6.30;4.17;;;;;;;26.81;27.27;102896.38;5010702;28;21008;-48
2022/05/09 07:05:22;;;;;;;5.40;4.90;;;;;;;26.62;25.73;102878.56;5002153;28;20437;-52
2022/05/09 07:07:50;;;;;;;6.47;4.40;;;;;;;26.38;24.63;102886.16;5006475;28;20873;-48
2022/05/09 07:10:19;;;;;;;7.30;3.67;;;;;;;26.27;27.30;102890.63;5014773;28;20420;-48
2022/05/09 07:12:49;;;;;;;4.97;3.67;;;;;;;25.96;25.49;102887.59;5014799;28;20771;-51
2022/05/09 07:15:20;;;;;;;5.33;3.60;;;;;;;26.03;26.37;102883.66;5012688;28;20436;-48
2022/05/09 07:17:50;;;;;;;4.37;3.97;;;;;;;25.64;26.69;102879.97;5005942;28;20479;-46
2022/05/09 07:20:20;;;;;;;6.90;3.60;;;;;;;25.18;27.81;102874.66;5014503;28;20531;-48
2022/05/09 07:22:48;;;;;;;6.43;4.33;;;;;;;25.10;27.62;102878.59;5014551;28;20476;-46
2022/05/09 07:25:16;;;;;;;5.60;4.70;;;;;;;25.10;26.98;102884.06;5014225;28;20433;-45
2022/05/09 07:27:44;;;;;;;4.77;4.30;;;;;;;24.78;27.77;102889.09;5012219;28;20502;-47
2022/05/09 07:30:13;;;;;;;4.43;4.03;;;;;;;24.81;27.75;102881.53;4994798;28;20557;-46
2022/05/09 07:32:43;;;;;;;6.33;3.93;;;;;;;24.40;27.79;102877.03;4994620;28;20443;-45
2022/05/09 07:35:14;;;;;;;3.83;3.53;;;;;;;24.34;28.46;102884.25;4994492;28;20464;-45
2022/05/09 07:37:41;;;;;;;9.13;5.07;;;;;;;23.75;28.71;102885.16;4993411;28;20469;-46
2022/05/09 07:40:11;;;;;;;6.33;4.27;;;;;;;23.48;28.50;102876.56;4994645;28;20831;-46
2022/05/09 07:42:41;;;;;;;4.77;3.90;;;;;;;23.18;28.75;102872.13;5001054;28;20463;-50
2022/05/09 07:45:11;;;;;;;6.57;4.03;;;;;;;22.92;29.53;102887.72;4994483;28;20437;-44
2022/05/09 07:47:39;;;;;;;3.83;3.30;;;;;;;23.00;30.06;102881.97;5003617;28;20456;-48
2022/05/09 07:50:11;;;;;;;5.97;3.60;;;;;;;22.46;29.98;102880.00;4995560;28;20947;-45
2022/05/09 07:52:38;;;;;;;5.90;4.40;;;;;;;22.06;30.44;102878.69;4996649;28;20437;-48
2022/05/09 07:55:07;;;;;;;4.67;4.23;;;;;;;21.47;30.88;102879.88;5004283;28;20437;-47
2022/05/09 07:57:35;;;;;;;4.50;4.17;;;;;;;21.27;31.71;102889.16;4993283;28;20472;-45
2022/05/09 08:00:03;;;;;;;6.60;4.10;;;;;;;21.09;31.80;102883.59;5013250;28;20797;-48
2022/05/09 08:02:34;;;;;;;3.90;3.50;;;;;;;21.05;32.17;102887.78;5012417;28;20480;-45
2022/05/09 08:05:02;;;;;;;4.70;4.30;;;;;;;20.62;33.32;102874.75;4999673;28;20429;-48
2022/05/09 08:07:31;;;;;;;7.00;3.80;;;;;;;20.42;33.80;102882.94;5002211;28;20495;-44
2022/05/09 08:09:59;;;;;;;4.40;3.73;;;;;;;20.14;33.96;102879.56;5013729;28;20436;-45
2022/05/09 08:12:27;;;;;;;7.40;4.77;;;;;;;20.31;33.97;102880.81;5013441;28;20677;-47
2022/05/09 08:14:55;;;;;;;5.10;4.67;;;;;;;20.42;34.20;102877.50;5013278;28;20910;-45
2022/05/09 08:17:22;;;;;;;5.77;4.20;;;;;;;20.58;33.47;102873.50;5012491;28;20834;-49
2022/05/09 08:19:55;;;;;;;4.67;3.80;;;;;;;20.47;34.04;102873.31;5013111;28;20436;-47
2022/05/09 08:22:25;;;;;;;6.77;4.20;;;;;;;20.80;33.83;102876.78;5013831;28;20443;-45
2022/05/09 08:24:54;;;;;;;4.30;3.90;;;;;;;21.17;33.67;102873.38;5013468;28;20462;-45
2022/05/09 08:27:21;;;;;;;4.60;4.20;;;;;;;21.23;33.47;102871.69;5012326;28;20850;-44
2022/05/09 08:29:51;;;;;;;4.70;4.30;;;;;;;21.42;33.22;102868.84;5013143;28;20516;-48
2022/05/09 08:32:18;;;;;;;4.83;3.97;;;;;;;21.41;33.15;102863.66;5012993;28;20825;-48
2022/05/09 08:34:46;;;;;;;4.40;4.00;;;;;;;21.46;33.22;102871.97;5006010;28;20445;-45
2022/05/09 08:37:14;;;;;;;5.53;3.93;;;;;;;21.27;33.06;102868.31;4992704;28;20484;-45
2022/05/09 08:39:41;;;;;;;4.67;3.90;;;;;;;20.89;33.56;102867.38;4993453;28;20801;-45
2022/05/09 08:42:18;;;;;;;4.40;3.80;;;;;;;20.65;33.75;102873.50;4997986;28;20428;-44
2022/05/09 08:45:12;;;;;;;4.00;3.63;;;;;;;20.36;34.51;102877.50;4993765;28;21033;-46
2022/05/09 08:48:06;;;;;;;4.00;3.70;;;;;;;20.05;34.96;102863.72;5002681;28;20468;-46
2022/05/09 08:50:42;;;;;;;5.40;4.03;;;;;;;19.91;35.80;102881.00;4993290;28;20429;-44
2022/05/09 08:53:13;;;;;;;5.17;4.77;;;;;;;19.75;35.75;102872.22;4993245;28;20560;-44
2022/05/09 08:55:44;;;;;;;5.97;3.30;;;;;;;19.56;35.88;102880.31;5007416;28;20455;-47
2022/05/09 08:58:20;;;;;;;4.60;4.00;;;;;;;19.42;36.22;102875.88;5001393;28;20444;-47
2022/05/09 09:00:50;;;;;;;5.30;4.80;;;;;;;19.56;36.33;102888.44;5012781;28;20805;-46
2022/05/09 09:03:26;;;;;;;4.27;3.87;;;;;;;19.59;36.73;102885.31;5005389;28;20516;-46
2022/05/09 09:05:58;;;;;;;4.77;4.30;;;;;;;19.76;36.26;102881.19;4992382;28;20457;-46
2022/05/09 09:08:37;;;;;;;4.37;3.97;;;;;;;20.04;35.53;102873.72;4999250;28;20429;-44
2022/05/09 09:11:12;;;;;;;4.43;4.13;;;;;;;19.77;36.49;102878.25;5011973;28;20437;-49
2022/05/09 09:13:51;;;;;;;4.43;4.00;;;;;;;19.69;36.59;102881.16;5012023;28;20434;-48
2022/05/09 09:16:29;;;;;;;4.13;3.73;;;;;;;19.76;36.13;102865.78;5010682;28;20471;-48
2022/05/09 09:19:18;;;;;;;4.57;4.17;;;;;;;19.59;36.27;102858.25;5003840;28;20962;-49
2022/05/09 09:21:58;;;;;;;3.77;3.57;;;;;;;19.68;35.41;102854.31;5012698;28;20441;-47
2022/05/09 09:24:38;;;;;;;3.83;3.53;;;;;;;19.80;35.99;102847.25;5011903;28;20476;-44
2022/05/09 09:27:16;;;;;;;5.03;4.43;;;;;;;20.05;35.78;102837.47;4995371;28;20488;-45
2022/05/09 09:29:51;;;;;;;4.37;3.53;;;;;;;20.26;34.70;102836.44;4992719;28;20441;-48
2022/05/09 09:32:20;;;;;;;4.23;3.83;;;;;;;20.33;35.12;102834.56;4992386;28;20456;-45
2022/05/09 09:34:53;;;;;;;5.07;4.57;;;;;;;20.16;35.11;102828.69;4998115;28;21011;-48
2022/05/09 09:37:27;;;;;;;5.50;4.57;;;;;;;20.37;35.77;102835.78;5011149;28;20468;-47
2022/05/09 09:39:54;;;;;;;6.37;5.00;;;;;;;20.46;35.38;102831.00;5011922;28;20433;-49
2022/05/09 09:42:22;;;;;;;5.13;4.00;;;;;;;20.24;35.07;102831.22;5012099;28;20424;-44
2022/05/09 09:44:54;;;;;;;4.93;3.73;;;;;;;20.29;35.31;102833.31;4992215;28;20847;-48
2022/05/09 09:47:24;;;;;;;3.53;3.33;;;;;;;20.40;34.51;102811.81;4999009;28;21124;-47
2022/05/09 09:50:18;;;;;;;4.07;3.87;;;;;;;20.41;35.30;102820.78;5011391;28;20440;-46
2022/05/09 09:52:50;;;;;;;4.50;4.10;;;;;;;20.59;33.24;102817.41;5011921;28;21008;-46
2022/05/09 09:55:27;;;;;;;5.07;4.40;;;;;;;20.58;34.95;102804.91;5011444;28;20425;-44
2022/05/09 09:57:56;;;;;;;4.63;4.33;;;;;;;20.65;34.65;102805.72;5010366;28;20492;-49
2022/05/09 10:00:29;;;;;;;4.30;4.00;;;;;;;20.79;34.86;102801.91;5011784;28;20437;-48
2022/05/09 10:03:17;;;;;;;3.97;3.50;;;;;;;20.79;35.41;102802.75;5006394;28;20441;-44
2022/05/09 10:05:45;;;;;;;4.57;4.13;;;;;;;20.81;33.78;102816.09;4996476;28;20834;-44
2022/05/09 10:08:31;;;;;;;4.07;3.20;;;;;;;20.95;33.76;102801.44;5010717;28;20440;-46
2022/05/09 10:11:05;;;;;;;3.70;3.50;;;;;;;21.18;33.79;102807.19;5011708;28;20429;-45
2022/05/09 10:13:37;;;;;;;4.63;3.20;;;;;;;21.01;34.10;102797.03;5011727;28;20736;-46
2022/05/09 10:16:11;;;;;;;3.50;3.20;;;;;;;21.15;34.32;102790.50;5010533;28;20461;-48
2022/05/09 10:18:40;;;;;;;3.53;3.23;;;;;;;20.65;34.65;102789.44;4992151;28;20987;-46
2022/05/09 10:24:47;;;;;;;3.50;3.30;;;;;;;20.74;34.68;102783.59;4991951;28;20441;-47
2022/05/09 10:27:00;;;;;;;3.30;3.00;;;;;;;21.20;33.28;102790.69;4990480;28;20465;-45
2022/05/09 10:29:33;;;;;;;4.10;3.70;;;;;;;20.98;33.34;102782.84;4991694;28;20441;-46
2022/05/09 10:32:09;;;;;;;3.73;3.43;;;;;;;21.07;33.86;102788.84;4991560;28;20454;-50
2022/05/09 10:34:44;;;;;;;3.63;3.33;;;;;;;21.07;32.92;102783.44;4991520;28;20433;-46
2022/05/09 10:37:19;;;;;;;3.73;3.20;;;;;;;20.85;34.25;102774.75;4990679;28;20477;-50
2022/05/09 10:39:53;;;;;;;4.70;3.33;;;;;;;20.72;34.19;102768.56;4991644;28;20441;-45
2022/05/09 10:42:34;;;;;;;3.43;3.23;;;;;;;21.01;33.12;102761.75;4997761;28;20439;-43
2022/05/09 10:45:09;;;;;;;4.20;3.43;;;;;;;20.51;35.00;102768.84;4991149;28;20523;-46
2022/05/09 10:47:46;;;;;;;4.37;3.40;;;;;;;20.70;34.16;102752.50;5001164;28;21003;-45
2022/05/09 10:50:18;;;;;;;4.73;3.53;;;;;;;21.11;33.14;102754.03;4991861;28;20433;-48
2022/05/09 10:52:59;;;;;;;4.43;3.00;;;;;;;21.18;34.14;102749.38;4991530;28;20456;-47
2022/05/09 10:55:33;;;;;;;4.00;3.30;;;;;;;21.32;34.13;102740.13;4991160;28;20436;-48
2022/05/09 10:58:05;;;;;;;7.00;3.90;;;;;;;21.25;33.89;102745.56;4993195;28;20464;-43
2022/05/09 11:00:35;;;;;;;3.63;3.33;;;;;;;21.08;35.18;102743.56;5035641;22;20531;-45
2022/05/09 11:03:16;;;;;;;3.80;3.50;;;;;;;20.68;34.53;102732.94;5001286;28;20430;-49
2022/05/09 11:06:01;;;;;;;4.30;4.00;;;;;;;20.65;35.23;102727.09;4990711;28;20839;-47
2022/05/09 11:08:39;;;;;;;4.33;3.67;;;;;;;20.99;35.06;102729.44;4990872;28;20430;-45
2022/05/09 11:11:13;;;;;;;7.40;3.50;;;;;;;21.22;34.17;102720.75;4991424;28;20457;-47
2022/05/09 11:13:54;;;;;;;4.93;4.10;;;;;;;21.57;33.25;102726.53;5001544;28;20929;-47
2022/05/09 11:16:33;;;;;;;3.47;3.27;;;;;;;21.27;34.02;102720.91;5010185;28;20460;-47
2022/05/09 11:19:17;;;;;;;5.27;3.93;;;;;;;21.31;34.07;102723.00;5010514;28;20444;-46
2022/05/09 11:21:53;;;;;;;4.80;4.13;;;;;;;21.47;33.08;102716.19;5010981;28;20455;-45
2022/05/09 11:24:36;;;;;;;5.93;4.47;;;;;;;21.51;34.16;102722.81;5010546;28;20476;-47
2022/05/09 11:27:19;;;;;;;4.57;4.37;;;;;;;21.66;33.48;102720.63;5009939;28;20476;-47
2022/05/09 11:30:30;;;;;;;5.70;5.07;;;;;;;21.43;34.08;102713.09;4991518;28;20425;-46
2022/05/09 11:33:16;;;;;;;4.60;4.30;;;;;;;21.56;33.79;102698.59;4995675;28;20957;-44
2022/05/09 11:35:49;;;;;;;4.40;4.10;;;;;;;21.42;34.62;102714.13;5012184;28;20421;-45
2022/05/09 11:38:47;;;;;;;6.30;4.00;;;;;;;21.42;33.76;102699.72;5013817;28;20657;-47
2022/05/09 11:41:29;;;;;;;4.40;3.83;;;;;;;21.20;33.89;102701.16;5014142;28;20973;-47
2022/05/09 11:44:09;;;;;;;4.83;4.43;;;;;;;21.25;35.22;102712.19;5013764;28;20424;-48
2022/05/09 11:46:59;;;;;;;4.40;4.00;;;;;;;20.99;35.22;102702.31;5008414;28;20985;-47
2022/05/09 11:49:55;;;;;;;4.57;4.10;;;;;;;21.05;35.02;102701.44;5002563;28;20436;-50
2022/05/09 11:52:28;;;;;;;4.63;4.23;;;;;;;20.92;35.42;102701.50;5013723;28;20566;-48
2022/05/09 11:55:04;;;;;;;5.13;4.60;;;;;;;21.08;34.64;102689.31;5002689;28;20424;-44
2022/05/09 11:57:35;;;;;;;4.40;4.10;;;;;;;21.19;34.34;102689.47;5012975;28;21023;-46
2022/05/09 12:00:08;;;;;;;4.27;4.07;;;;;;;21.23;34.54;102689.88;5014278;28;20436;-49